Аэропорт: Бесовец. Петрозаводск

ICAO: ULPB

METAR:
2021-07-28 13:30:00
ULPB 281330Z 10002MPS CAVOK 23/15 Q1009 R19/09//70 NOSIG RMK QFE752/1003
METAR:
Информация по данной станции не доступна